createdAt,value
2022-12-19T00:00:35.778Z,83.59
2022-12-19T00:03:05.704Z,83.60
2022-12-19T00:05:38.334Z,84.07
2022-12-19T00:08:17.085Z,84.32
2022-12-19T00:10:55.592Z,84.09
2022-12-19T00:13:24.305Z,84.20
2022-12-19T00:15:55.324Z,84.17
2022-12-19T00:18:24.968Z,84.72
2022-12-19T00:20:57.143Z,85.16
2022-12-19T00:23:25.602Z,85.42
2022-12-19T00:25:53.869Z,85.58
2022-12-19T00:28:22.315Z,85.70
2022-12-19T00:30:50.554Z,85.86
2022-12-19T00:33:21.538Z,86.59
2022-12-19T00:35:51.128Z,86.05
2022-12-19T00:38:19.324Z,86.33
2022-12-19T00:40:47.480Z,87.13
2022-12-19T00:43:15.662Z,87.19
2022-12-19T00:45:43.901Z,86.95
2022-12-19T00:48:12.141Z,87.03
2022-12-19T00:50:42.763Z,86.32
2022-12-19T00:53:12.464Z,86.13
2022-12-19T00:55:40.778Z,86.68
2022-12-19T00:58:08.851Z,87.02
2022-12-19T01:00:37.025Z,86.69
2022-12-19T01:03:05.759Z,87.26
2022-12-19T01:05:34.053Z,87.03
2022-12-19T01:08:02.547Z,87.23
2022-12-19T01:10:32.083Z,87.48
2022-12-19T01:12:59.176Z,86.95
2022-12-19T01:15:27.476Z,87.36
2022-12-19T01:17:55.560Z,86.48
2022-12-19T01:20:29.081Z,85.76
2022-12-19T01:23:00.291Z,85.76
2022-12-19T01:25:28.875Z,85.89
2022-12-19T01:27:58.769Z,86.04
2022-12-19T01:30:27.631Z,86.25
2022-12-19T01:32:58.550Z,86.71
2022-12-19T01:35:26.836Z,87.36
2022-12-19T01:38:03.319Z,86.83
2022-12-19T01:40:37.480Z,86.70
2022-12-19T01:43:07.522Z,86.95
2022-12-19T01:45:42.126Z,87.77
2022-12-19T01:48:17.958Z,86.96
2022-12-19T01:51:01.168Z,86.64
2022-12-19T01:53:35.117Z,86.67
2022-12-19T01:56:07.882Z,87.04
2022-12-19T01:58:40.029Z,87.65
2022-12-19T02:01:08.281Z,87.52
2022-12-19T02:03:39.135Z,87.42
2022-12-19T02:06:09.842Z,87.69
2022-12-19T02:08:38.598Z,88.01
2022-12-19T02:11:07.040Z,88.11
2022-12-19T02:13:35.591Z,87.58
2022-12-19T02:16:17.619Z,87.97
2022-12-19T02:18:57.601Z,88.59
2022-12-19T02:21:46.244Z,87.72
2022-12-19T02:24:57.558Z,87.82
2022-12-19T02:28:07.959Z,87.34
2022-12-19T02:30:51.830Z,86.58
2022-12-19T02:33:32.590Z,87.13
2022-12-19T02:36:09.051Z,86.29
2022-12-19T02:38:46.197Z,87.03
2022-12-19T02:41:23.924Z,86.74
2022-12-19T02:43:59.073Z,87.21
2022-12-19T02:46:30.675Z,86.97
2022-12-19T02:48:59.637Z,86.62
2022-12-19T02:51:27.921Z,85.80
2022-12-19T02:53:56.178Z,85.61
2022-12-19T02:56:35.366Z,84.85
2022-12-19T02:59:35.394Z,85.04
2022-12-19T03:02:12.192Z,85.40
2022-12-19T03:04:49.420Z,85.12
2022-12-19T03:07:29.426Z,85.73
2022-12-19T03:10:07.681Z,84.96
2022-12-19T03:12:39.964Z,84.60
2022-12-19T03:15:09.771Z,84.56
2022-12-19T03:17:39.937Z,84.87
2022-12-19T03:20:15.081Z,85.05
2022-12-19T03:22:43.300Z,84.35
2022-12-19T03:25:11.532Z,84.75
2022-12-19T03:27:41.103Z,84.56
2022-12-19T03:30:13.126Z,83.91
2022-12-19T03:32:45.447Z,83.71
2022-12-19T03:35:19.775Z,85.13
2022-12-19T03:37:50.347Z,85.32
2022-12-19T03:40:21.303Z,85.86
2022-12-19T03:43:08.784Z,86.80
2022-12-19T03:45:46.113Z,86.33
2022-12-19T03:48:22.087Z,86.95
2022-12-19T03:50:57.836Z,86.23
2022-12-19T03:53:34.982Z,86.37
2022-12-19T03:56:12.871Z,86.94
2022-12-19T03:58:46.991Z,86.94
2022-12-19T04:01:15.988Z,86.77
2022-12-19T04:03:46.159Z,86.48
2022-12-19T04:06:16.273Z,86.11
2022-12-19T04:08:45.763Z,85.91
2022-12-19T04:11:19.652Z,85.35
2022-12-19T04:13:54.480Z,85.70
2022-12-19T04:16:32.074Z,87.00
2022-12-19T04:19:07.668Z,87.21
2022-12-19T04:21:43.962Z,86.69
2022-12-19T04:24:20.795Z,86.57
2022-12-19T04:26:51.279Z,86.81
2022-12-19T04:29:20.509Z,86.70
2022-12-19T04:31:49.827Z,87.10
2022-12-19T04:34:22.499Z,86.00
2022-12-19T04:36:52.220Z,85.91
2022-12-19T04:39:20.381Z,85.46
2022-12-19T04:41:48.469Z,85.13
2022-12-19T04:44:16.651Z,85.16
2022-12-19T04:46:44.806Z,85.06
2022-12-19T04:49:13.374Z,85.78
2022-12-19T04:51:42.989Z,85.96
2022-12-19T04:54:11.367Z,86.26
2022-12-19T04:56:39.754Z,86.31
2022-12-19T04:59:07.997Z,86.47
2022-12-19T05:01:36.229Z,85.89
2022-12-19T05:04:05.031Z,85.54
2022-12-19T05:06:33.344Z,85.80
2022-12-19T05:09:02.974Z,85.33
2022-12-19T05:11:31.320Z,85.06
2022-12-19T05:14:00.547Z,85.72
2022-12-19T05:16:29.427Z,85.49
2022-12-19T05:18:57.896Z,85.33
2022-12-19T05:21:26.112Z,85.30
2022-12-19T05:23:55.623Z,84.81
2022-12-19T05:26:25.412Z,83.68
2022-12-19T05:28:53.842Z,84.18
2022-12-19T05:31:23.248Z,83.29
2022-12-19T05:33:51.968Z,83.65
2022-12-19T05:36:20.317Z,83.66
2022-12-19T05:38:48.789Z,84.43
2022-12-19T05:41:18.883Z,84.83
2022-12-19T05:43:52.869Z,85.53
2022-12-19T05:46:21.905Z,85.19
2022-12-19T05:48:50.450Z,85.07
2022-12-19T05:51:19.244Z,84.82
2022-12-19T05:53:47.335Z,84.08
2022-12-19T05:56:17.192Z,85.09
2022-12-19T05:58:46.266Z,85.21
2022-12-19T06:01:18.468Z,85.20
2022-12-19T06:03:46.947Z,84.66
2022-12-19T06:06:17.545Z,84.39
2022-12-19T06:08:45.975Z,85.21
2022-12-19T06:11:17.243Z,84.63
2022-12-19T06:13:48.668Z,85.68
2022-12-19T06:16:19.988Z,86.50
2022-12-19T06:18:48.914Z,85.63
2022-12-19T06:21:19.095Z,84.69
2022-12-19T06:23:48.222Z,84.02
2022-12-19T06:26:20.169Z,84.76
2022-12-19T06:28:49.639Z,84.58
2022-12-19T06:31:20.266Z,84.52
2022-12-19T06:33:48.395Z,84.14
2022-12-19T06:36:20.265Z,84.29
2022-12-19T06:38:48.685Z,84.22
2022-12-19T06:41:34.672Z,83.64
2022-12-19T06:44:03.971Z,83.07
2022-12-19T06:46:34.393Z,83.24
2022-12-19T06:49:02.792Z,83.63
2022-12-19T06:51:31.406Z,82.88
2022-12-19T06:53:59.660Z,82.58
2022-12-19T06:56:28.305Z,81.96
2022-12-19T06:58:56.517Z,81.85
2022-12-19T07:01:35.899Z,81.37
2022-12-19T07:04:05.971Z,80.84
2022-12-19T07:06:34.115Z,79.80
2022-12-19T07:09:02.331Z,79.75
2022-12-19T07:11:30.590Z,79.60
2022-12-19T07:13:59.111Z,78.55
2022-12-19T07:16:29.066Z,79.26
2022-12-19T07:18:57.510Z,79.29
2022-12-19T07:21:27.319Z,77.96
2022-12-19T07:23:55.453Z,76.82
2022-12-19T07:26:24.420Z,77.03
2022-12-19T07:28:52.674Z,76.66
2022-12-19T07:31:20.926Z,76.17
2022-12-19T07:33:49.074Z,76.66
2022-12-19T07:36:17.208Z,76.90
2022-12-19T07:38:46.769Z,77.63
2022-12-19T07:41:15.053Z,77.76
2022-12-19T07:44:32.812Z,78.22
2022-12-19T07:47:00.934Z,78.85
2022-12-19T07:49:29.098Z,78.21
2022-12-19T07:51:57.234Z,77.77
2022-12-19T07:54:26.870Z,78.94
2022-12-19T07:56:55.253Z,79.68
2022-12-19T07:59:29.603Z,78.78
2022-12-19T08:01:58.683Z,79.12
2022-12-19T08:04:27.562Z,78.62
2022-12-19T08:06:55.696Z,78.16
2022-12-19T08:09:27.675Z,77.96
2022-12-19T08:11:57.265Z,77.17
2022-12-19T08:14:25.496Z,77.59
2022-12-19T08:17:19.738Z,76.14
2022-12-19T08:19:41.803Z,76.91
2022-12-19T08:22:10.166Z,75.98
2022-12-19T08:24:39.029Z,76.10
2022-12-19T08:27:08.658Z,76.83
2022-12-19T08:29:36.765Z,76.71
2022-12-19T08:32:05.051Z,75.99
2022-12-19T08:34:33.569Z,75.19
2022-12-19T08:37:01.735Z,75.89
2022-12-19T08:39:29.841Z,75.88
2022-12-19T08:41:59.046Z,75.88
2022-12-19T08:44:28.615Z,75.19
2022-12-19T08:46:56.734Z,75.64
2022-12-19T08:49:24.838Z,76.13
2022-12-19T08:51:52.981Z,76.44
2022-12-19T08:54:21.138Z,75.37
2022-12-19T08:56:49.322Z,75.28
2022-12-19T08:59:17.650Z,74.43
2022-12-19T09:01:55.700Z,73.25
2022-12-19T09:05:55.447Z,74.10
2022-12-19T09:07:15.645Z,73.91
2022-12-19T09:09:44.240Z,75.32
2022-12-19T09:12:13.503Z,75.60
2022-12-19T09:14:41.910Z,75.69
2022-12-19T09:17:11.638Z,75.09
2022-12-19T09:19:39.993Z,73.23
2022-12-19T09:22:11.677Z,72.54
2022-12-19T09:24:40.503Z,72.97
2022-12-19T09:27:08.706Z,71.57
2022-12-19T09:29:36.853Z,71.56
2022-12-19T09:32:05.109Z,69.57
2022-12-19T09:34:38.356Z,67.45
2022-12-19T09:37:07.841Z,68.62
2022-12-19T09:39:36.629Z,69.60
2022-12-19T09:42:41.228Z,69.38
2022-12-19T09:45:42.441Z,68.37
2022-12-19T09:48:23.790Z,69.11
2022-12-19T09:51:09.382Z,69.42
2022-12-19T09:53:45.561Z,66.93
2022-12-19T09:56:25.140Z,65.99
2022-12-19T09:58:59.758Z,64.12
2022-12-19T10:01:33.273Z,64.17
2022-12-19T10:04:04.953Z,62.59
2022-12-19T10:07:12.513Z,62.83
2022-12-19T10:12:46.350Z,64.24
2022-12-19T10:12:47.440Z,65.68
2022-12-19T10:15:27.461Z,66.77
2022-12-19T10:18:19.027Z,68.01
2022-12-19T10:20:53.646Z,66.89
2022-12-19T10:23:45.151Z,65.36
2022-12-19T10:26:20.743Z,61.50
2022-12-19T10:29:05.479Z,59.83
2022-12-19T10:31:39.597Z,60.51
2022-12-19T10:34:17.489Z,60.53
2022-12-19T10:37:24.473Z,60.19
2022-12-19T10:39:52.498Z,60.54
2022-12-19T10:42:32.085Z,60.97
2022-12-19T10:45:03.227Z,60.83
2022-12-19T10:47:31.768Z,60.93
2022-12-19T10:50:05.481Z,61.73
2022-12-19T10:52:52.351Z,61.75
2022-12-19T10:55:40.207Z,61.54
2022-12-19T10:58:20.392Z,61.50
2022-12-19T11:01:00.885Z,61.24
2022-12-19T11:03:29.275Z,61.58
2022-12-19T11:05:58.981Z,61.85
2022-12-19T11:08:29.386Z,62.55
2022-12-19T11:13:29.151Z,62.77
2022-12-19T11:18:41.875Z,62.81
2022-12-19T11:21:28.330Z,63.16
2022-12-19T11:29:37.163Z,63.35
2022-12-19T11:29:37.271Z,61.83
2022-12-19T11:29:40.454Z,62.52
2022-12-19T11:30:38.843Z,63.73
2022-12-19T11:34:06.089Z,65.49
2022-12-19T11:36:39.709Z,65.66
2022-12-19T11:39:17.724Z,65.66
2022-12-19T11:41:53.454Z,65.98
2022-12-19T11:44:31.863Z,63.08
2022-12-19T11:47:10.950Z,64.67
2022-12-19T11:49:43.579Z,64.81
2022-12-19T11:53:02.475Z,65.19
2022-12-19T11:55:20.103Z,64.14
2022-12-19T11:57:49.287Z,62.42
2022-12-19T12:00:21.769Z,63.25
2022-12-19T12:03:13.705Z,65.09
2022-12-19T12:05:44.788Z,65.71
2022-12-19T12:13:00.832Z,64.52
2022-12-19T12:19:03.260Z,64.58
2022-12-19T12:27:26.697Z,65.24
2022-12-19T12:28:21.729Z,65.73
2022-12-19T12:31:04.353Z,66.45
2022-12-19T12:31:38.889Z,65.82
2022-12-19T12:31:57.747Z,66.06
2022-12-19T12:32:00.975Z,65.26
2022-12-19T12:35:56.814Z,66.87
2022-12-19T12:38:49.489Z,67.28
2022-12-19T12:41:39.674Z,68.71
2022-12-19T12:44:12.818Z,69.64
2022-12-19T12:46:43.389Z,69.68
2022-12-19T12:49:30.770Z,69.88
2022-12-19T12:52:02.981Z,70.74
2022-12-19T12:54:35.734Z,72.05
2022-12-19T12:57:04.173Z,71.68
2022-12-19T12:59:33.017Z,71.79
2022-12-19T13:02:08.010Z,71.21
2022-12-19T13:04:43.225Z,72.75
2022-12-19T13:07:21.429Z,73.78
2022-12-19T13:10:06.250Z,74.13
2022-12-19T13:12:51.674Z,74.23
2022-12-19T13:15:37.560Z,73.96
2022-12-19T13:18:37.892Z,73.64
2022-12-19T13:21:10.045Z,73.82
2022-12-19T13:23:48.451Z,73.34
2022-12-19T13:26:45.857Z,73.30
2022-12-19T13:29:33.679Z,69.88
2022-12-19T13:32:17.054Z,71.30
2022-12-19T13:35:21.259Z,72.71
2022-12-19T13:39:50.241Z,72.88
2022-12-19T13:40:57.873Z,73.82
2022-12-19T13:43:49.023Z,74.00
2022-12-19T13:46:27.916Z,73.85
2022-12-19T13:48:59.889Z,73.73
2022-12-19T13:51:28.032Z,75.13
2022-12-19T13:53:59.846Z,75.39
2022-12-19T13:56:32.089Z,76.00
2022-12-19T13:59:02.930Z,76.35
2022-12-19T14:01:33.482Z,77.16
2022-12-19T14:04:08.558Z,77.64
2022-12-19T14:06:42.565Z,77.40
2022-12-19T14:11:25.485Z,77.31
2022-12-19T14:13:59.226Z,78.74
2022-12-19T14:15:32.929Z,78.99
2022-12-19T14:18:41.696Z,79.19
2022-12-19T14:22:06.140Z,79.56
2022-12-19T14:23:43.345Z,79.80
2022-12-19T14:28:21.103Z,80.39
2022-12-19T14:29:15.979Z,80.37
2022-12-19T14:32:24.002Z,80.83
2022-12-19T14:35:05.072Z,80.50
2022-12-19T14:39:18.422Z,80.56
2022-12-19T14:40:27.037Z,80.67
2022-12-19T14:43:55.807Z,80.83
2022-12-19T14:54:12.864Z,81.53
2022-12-19T14:54:16.120Z,80.92
2022-12-19T14:54:20.955Z,81.63
2022-12-19T14:56:16.683Z,81.89
2022-12-19T14:58:56.274Z,81.87
2022-12-19T15:01:26.622Z,82.39
2022-12-19T15:04:49.313Z,82.48
2022-12-19T15:07:07.752Z,81.73
2022-12-19T15:11:04.725Z,82.40
2022-12-19T15:14:53.929Z,82.32
2022-12-19T15:15:55.450Z,82.40
2022-12-19T15:18:28.441Z,81.76
2022-12-19T15:20:59.212Z,82.07
2022-12-19T15:23:28.075Z,83.03
2022-12-19T15:26:05.719Z,83.19
2022-12-19T15:28:40.383Z,83.13
2022-12-19T15:31:19.577Z,82.03
2022-12-19T15:34:14.886Z,81.79
2022-12-19T15:36:37.747Z,81.83
2022-12-19T15:39:06.083Z,82.05
2022-12-19T15:41:34.265Z,82.05
2022-12-19T15:44:08.533Z,82.67
2022-12-19T15:46:38.902Z,82.67
2022-12-19T15:49:16.655Z,82.38
2022-12-19T15:51:45.175Z,82.24
2022-12-19T15:57:01.466Z,82.20
2022-12-19T15:59:38.012Z,82.14
2022-12-19T16:02:20.041Z,82.65
2022-12-19T16:04:56.924Z,82.64
2022-12-19T16:07:31.009Z,82.35
2022-12-19T16:09:59.175Z,82.50
2022-12-19T16:12:33.975Z,82.13
2022-12-19T16:15:03.182Z,82.37
2022-12-19T16:17:33.798Z,81.35
2022-12-19T16:20:03.370Z,81.50
2022-12-19T16:22:31.801Z,81.72
2022-12-19T16:25:00.101Z,82.20
2022-12-19T16:27:30.265Z,81.48
2022-12-19T16:30:03.891Z,82.73
2022-12-19T16:32:32.021Z,82.27
2022-12-19T16:35:00.252Z,81.78
2022-12-19T16:37:32.406Z,82.26
2022-12-19T16:40:02.077Z,82.51
2022-12-19T16:42:31.348Z,82.49
2022-12-19T16:44:59.519Z,82.24
2022-12-19T16:47:28.308Z,82.35
2022-12-19T16:49:56.712Z,82.02
2022-12-19T16:52:25.075Z,82.65
2022-12-19T16:54:54.659Z,82.99
2022-12-19T16:57:23.927Z,82.82
2022-12-19T16:59:52.795Z,82.73
2022-12-19T17:02:43.504Z,83.00
2022-12-19T17:05:24.393Z,83.08
2022-12-19T17:07:53.394Z,83.12
2022-12-19T17:10:26.694Z,83.09
2022-12-19T17:12:56.658Z,83.52
2022-12-19T17:15:28.683Z,83.23
2022-12-19T17:17:59.365Z,83.58
2022-12-19T17:20:31.922Z,84.38
2022-12-19T17:23:00.347Z,85.03
2022-12-19T17:25:30.197Z,85.32
2022-12-19T17:27:58.538Z,85.75
2022-12-19T17:30:26.745Z,86.43
2022-12-19T17:32:56.880Z,86.61
2022-12-19T17:35:29.167Z,86.77
2022-12-19T17:37:58.386Z,87.08
2022-12-19T17:40:28.388Z,86.35
2022-12-19T17:42:58.732Z,87.15
2022-12-19T17:45:30.042Z,87.88
2022-12-19T17:48:03.206Z,88.27
2022-12-19T17:50:36.558Z,88.85
2022-12-19T17:53:04.892Z,89.08
2022-12-19T17:55:33.500Z,89.40
2022-12-19T17:58:03.194Z,89.52
2022-12-19T18:00:33.738Z,90.00
2022-12-19T18:03:06.791Z,90.47
2022-12-19T18:05:37.147Z,91.07
2022-12-19T18:08:11.235Z,90.94
2022-12-19T18:10:39.563Z,91.55
2022-12-19T18:13:09.045Z,91.31
2022-12-19T18:15:37.703Z,91.28
2022-12-19T18:18:06.606Z,91.40
2022-12-19T18:20:35.113Z,90.76
2022-12-19T18:23:03.757Z,90.41
2022-12-19T18:25:35.256Z,89.65
2022-12-19T18:28:03.705Z,89.42
2022-12-19T18:30:33.291Z,89.42
2022-12-19T18:33:03.410Z,89.31
2022-12-19T18:35:37.197Z,88.96
2022-12-19T18:38:08.266Z,88.70
2022-12-19T18:40:36.557Z,88.56
2022-12-19T18:43:05.255Z,88.13
2022-12-19T18:45:37.450Z,87.51
2022-12-19T18:48:09.286Z,86.94
2022-12-19T18:50:37.418Z,87.30
2022-12-19T18:53:11.899Z,87.17
2022-12-19T18:55:40.014Z,87.29
2022-12-19T18:58:08.322Z,87.62
2022-12-19T19:00:40.481Z,88.25
2022-12-19T19:03:15.504Z,88.83
2022-12-19T19:05:44.257Z,89.32
2022-12-19T19:08:17.894Z,89.62
2022-12-19T19:10:47.290Z,89.69
2022-12-19T19:13:16.507Z,89.74
2022-12-19T19:15:49.631Z,89.08
2022-12-19T19:18:20.937Z,88.46
2022-12-19T19:20:53.159Z,88.70
2022-12-19T19:23:27.730Z,88.86
2022-12-19T19:25:55.990Z,89.29
2022-12-19T19:28:24.097Z,89.20
2022-12-19T19:30:53.968Z,89.06
2022-12-19T19:33:25.114Z,89.30
2022-12-19T19:35:57.091Z,89.22
2022-12-19T19:38:25.813Z,89.23
2022-12-19T19:40:54.296Z,89.19
2022-12-19T19:43:22.435Z,89.12
2022-12-19T19:45:53.308Z,88.93
2022-12-19T19:48:21.790Z,89.37
2022-12-19T19:50:50.141Z,89.42
2022-12-19T19:53:18.305Z,89.90
2022-12-19T19:55:46.376Z,90.46
2022-12-19T19:58:14.517Z,90.85
2022-12-19T20:00:43.579Z,91.32
2022-12-19T20:03:18.739Z,91.81
2022-12-19T20:05:51.355Z,91.66
2022-12-19T20:08:19.689Z,91.61
2022-12-19T20:10:55.452Z,91.90
2022-12-19T20:13:23.687Z,92.61
2022-12-19T20:15:52.333Z,92.35
2022-12-19T20:18:21.885Z,92.36
2022-12-19T20:20:50.102Z,92.17
2022-12-19T20:23:18.281Z,92.28
2022-12-19T20:25:47.557Z,92.47
2022-12-19T20:28:15.735Z,92.69
2022-12-19T20:30:43.857Z,93.26
2022-12-19T20:33:12.021Z,93.13
2022-12-19T20:35:41.572Z,92.78
2022-12-19T20:38:09.822Z,92.89
2022-12-19T20:40:37.943Z,92.52
2022-12-19T20:43:06.182Z,92.22
2022-12-19T20:45:34.450Z,92.23
2022-12-19T20:48:02.608Z,92.47
2022-12-19T20:50:30.855Z,92.20
2022-12-19T20:53:00.405Z,91.83
2022-12-19T20:55:29.258Z,91.62
2022-12-19T20:57:57.431Z,91.65
2022-12-19T21:00:25.776Z,91.74
2022-12-19T21:03:26.665Z,91.66
2022-12-19T21:05:43.258Z,91.43
2022-12-19T21:08:12.817Z,91.50
2022-12-19T21:10:40.973Z,91.47
2022-12-19T21:13:10.301Z,91.98
2022-12-19T21:15:38.475Z,91.51
2022-12-19T21:18:06.951Z,91.28
2022-12-19T21:20:35.917Z,92.14
2022-12-19T21:23:05.188Z,92.07
2022-12-19T21:25:34.753Z,91.87
2022-12-19T21:28:03.056Z,91.74
2022-12-19T21:30:31.280Z,91.60
2022-12-19T21:32:59.410Z,91.74
2022-12-19T21:35:27.779Z,91.66
2022-12-19T21:37:56.028Z,91.77
2022-12-19T21:40:24.216Z,91.42
2022-12-19T21:42:54.269Z,91.64
2022-12-19T21:45:22.511Z,91.76
2022-12-19T21:47:50.832Z,91.67
2022-12-19T21:50:19.075Z,91.62
2022-12-19T21:52:50.211Z,91.91
2022-12-19T21:55:22.442Z,92.08
2022-12-19T21:57:50.577Z,91.76
2022-12-19T22:00:21.460Z,91.72
2022-12-19T22:03:12.031Z,91.33
2022-12-19T22:05:37.923Z,91.20
2022-12-19T22:08:06.620Z,91.49
2022-12-19T22:10:34.860Z,91.54
2022-12-19T22:13:03.238Z,91.14
2022-12-19T22:15:32.848Z,91.07
2022-12-19T22:18:01.200Z,91.23
2022-12-19T22:20:29.327Z,91.05
2022-12-19T22:22:57.429Z,90.71
2022-12-19T22:25:25.547Z,90.65
2022-12-19T22:27:56.670Z,90.71
2022-12-19T22:30:24.787Z,90.67
2022-12-19T22:32:54.521Z,90.95
2022-12-19T22:35:22.608Z,91.04
2022-12-19T22:37:52.071Z,90.53
2022-12-19T22:40:20.208Z,90.53
2022-12-19T22:42:48.347Z,91.31
2022-12-19T22:45:16.594Z,90.72
2022-12-19T22:47:45.191Z,90.28
2022-12-19T22:50:14.694Z,90.60
2022-12-19T22:52:42.828Z,90.35
2022-12-19T22:55:11.309Z,90.22
2022-12-19T22:57:39.610Z,90.41
2022-12-19T23:00:10.933Z,90.58
2022-12-19T23:02:40.255Z,90.54
2022-12-19T23:05:09.392Z,90.53
2022-12-19T23:07:38.882Z,90.40
2022-12-19T23:10:08.518Z,90.14
2022-12-19T23:12:36.569Z,90.06
2022-12-19T23:15:05.045Z,89.62
2022-12-19T23:17:33.228Z,89.30
2022-12-19T23:20:01.371Z,89.66
2022-12-19T23:22:29.664Z,89.41
2022-12-19T23:24:59.664Z,89.37
2022-12-19T23:27:27.814Z,89.37
2022-12-19T23:29:55.947Z,89.58
2022-12-19T23:32:24.129Z,88.89
2022-12-19T23:34:52.354Z,89.06
2022-12-19T23:37:20.547Z,88.94
2022-12-19T23:39:48.617Z,89.51
2022-12-19T23:42:18.169Z,90.07
2022-12-19T23:44:46.295Z,89.72
2022-12-19T23:47:14.503Z,89.63
2022-12-19T23:49:42.636Z,89.22
2022-12-19T23:52:11.020Z,89.80
2022-12-19T23:54:39.098Z,90.18
2022-12-19T23:57:07.408Z,90.33
2022-12-19T23:59:37.166Z,90.58
